createdAt,value
2022-10-06T00:03:39.880Z,84.85655
2022-10-06T00:08:41.523Z,79.9974
2022-10-06T00:13:43.084Z,79.1678
2022-10-06T00:18:44.719Z,77.5086
2022-10-06T00:23:46.310Z,73.8939
2022-10-06T00:28:48.008Z,69.2718
2022-10-06T00:33:49.763Z,61.86465
2022-10-06T00:38:51.368Z,51.43535
2022-10-06T00:43:52.984Z,46.3392
2022-10-06T00:48:54.636Z,44.0874
2022-10-06T00:53:56.247Z,36.9765
2022-10-06T00:58:57.858Z,27.7324
2022-10-06T01:03:59.364Z,19.1401
2022-10-06T01:09:00.966Z,13.7477
2022-10-06T01:14:02.541Z,7.70345
2022-10-06T01:19:04.099Z,5.33005
2022-10-06T01:24:05.736Z,4.7767
2022-10-06T01:29:07.369Z,4.56275
2022-10-06T01:34:09.009Z,0.9481
2022-10-06T01:39:10.626Z,0.4148
2022-10-06T01:44:12.305Z,0
2022-10-06T01:49:13.906Z,0
2022-10-06T01:54:15.538Z,0
2022-10-06T01:59:17.140Z,0
2022-10-06T02:04:18.797Z,0
2022-10-06T02:09:20.435Z,0
2022-10-06T02:14:22.193Z,0
2022-10-06T02:19:23.837Z,0
2022-10-06T02:24:25.450Z,0
2022-10-06T02:29:27.082Z,0
2022-10-06T02:34:28.709Z,0
2022-10-06T02:39:30.330Z,0
2022-10-06T02:44:31.994Z,0
2022-10-06T02:49:33.571Z,0
2022-10-06T02:54:35.173Z,0
2022-10-06T02:59:36.765Z,0
2022-10-06T03:04:38.356Z,0
2022-10-06T03:09:40.036Z,0
2022-10-06T03:14:41.636Z,0
2022-10-06T03:19:43.240Z,0
2022-10-06T03:24:44.850Z,0
2022-10-06T03:29:46.426Z,0
2022-10-06T03:34:48.035Z,0
2022-10-06T03:39:49.754Z,0
2022-10-06T03:44:51.356Z,0
2022-10-06T03:49:52.948Z,0
2022-10-06T03:54:54.518Z,0
2022-10-06T03:59:56.115Z,0
2022-10-06T04:04:57.722Z,0
2022-10-06T04:09:59.299Z,0
2022-10-06T04:15:01.000Z,0
2022-10-06T04:20:02.686Z,0
2022-10-06T04:25:04.338Z,0
2022-10-06T04:30:05.887Z,0
2022-10-06T04:35:07.511Z,0
2022-10-06T04:40:09.107Z,0
2022-10-06T04:45:10.699Z,0
2022-10-06T04:50:12.265Z,0
2022-10-06T04:55:13.847Z,0
2022-10-06T05:00:15.426Z,0
2022-10-06T05:05:17.028Z,0
2022-10-06T05:10:18.625Z,0
2022-10-06T05:15:20.252Z,0
2022-10-06T05:20:21.809Z,0
2022-10-06T05:25:23.449Z,0
2022-10-06T05:30:25.077Z,0
2022-10-06T05:35:26.680Z,0
2022-10-06T05:40:28.307Z,0
2022-10-06T05:45:29.941Z,0
2022-10-06T05:50:31.569Z,0
2022-10-06T05:55:33.223Z,0
2022-10-06T06:00:34.826Z,0
2022-10-06T06:05:36.575Z,0
2022-10-06T06:10:38.155Z,0
2022-10-06T06:15:39.759Z,0
2022-10-06T06:20:41.369Z,0
2022-10-06T06:25:42.979Z,0
2022-10-06T06:30:44.624Z,0
2022-10-06T06:35:46.267Z,0
2022-10-06T06:40:47.847Z,0
2022-10-06T06:45:49.472Z,0
2022-10-06T06:50:51.118Z,0
2022-10-06T06:55:52.694Z,0
2022-10-06T07:00:54.340Z,0
2022-10-06T07:05:55.999Z,0
2022-10-06T07:10:57.569Z,0
2022-10-06T07:15:59.250Z,0
2022-10-06T07:21:01.070Z,0
2022-10-06T07:26:02.660Z,0
2022-10-06T07:31:04.290Z,0
2022-10-06T07:36:05.909Z,0
2022-10-06T07:41:19.044Z,0
2022-10-06T07:46:21.606Z,0
2022-10-06T07:51:23.187Z,0
2022-10-06T07:56:24.798Z,0
2022-10-06T08:01:26.530Z,0
2022-10-06T08:06:28.137Z,0
2022-10-06T08:11:29.652Z,0
2022-10-06T08:16:31.326Z,0
2022-10-06T08:21:32.940Z,0
2022-10-06T08:26:34.600Z,0
2022-10-06T08:31:36.360Z,0
2022-10-06T08:36:37.954Z,0
2022-10-06T08:41:39.551Z,0
2022-10-06T08:46:41.167Z,0
2022-10-06T08:51:42.853Z,0
2022-10-06T08:56:44.501Z,0
2022-10-06T09:01:46.298Z,0
2022-10-06T09:06:47.967Z,0
2022-10-06T09:11:49.632Z,0
2022-10-06T09:16:51.265Z,0
2022-10-06T09:21:53.050Z,0
2022-10-06T09:26:54.698Z,0
2022-10-06T09:31:56.287Z,0
2022-10-06T09:37:01.278Z,0
2022-10-06T09:42:03.853Z,0
2022-10-06T09:47:05.408Z,0
2022-10-06T09:52:06.967Z,0
2022-10-06T09:57:08.597Z,0
2022-10-06T10:02:10.229Z,0
2022-10-06T10:07:11.897Z,0
2022-10-06T10:12:13.511Z,0
2022-10-06T10:17:15.147Z,0
2022-10-06T10:22:16.740Z,0
2022-10-06T10:27:18.371Z,0
2022-10-06T10:32:20.019Z,0
2022-10-06T10:37:21.688Z,0
2022-10-06T10:42:23.316Z,0
2022-10-06T10:47:24.895Z,0
2022-10-06T10:52:26.524Z,0
2022-10-06T10:57:28.122Z,0
2022-10-06T11:02:29.700Z,0
2022-10-06T11:07:31.313Z,0
2022-10-06T11:12:32.900Z,0
2022-10-06T11:17:34.472Z,0
2022-10-06T11:22:36.037Z,0
2022-10-06T11:27:37.608Z,0
2022-10-06T11:32:39.206Z,0
2022-10-06T11:37:40.843Z,0
2022-10-06T11:42:42.458Z,0
2022-10-06T11:47:44.082Z,0
2022-10-06T11:52:45.690Z,0
2022-10-06T11:57:47.277Z,0
2022-10-06T12:02:49.022Z,0
2022-10-06T12:07:50.711Z,0
2022-10-06T12:13:06.295Z,0
2022-10-06T12:18:09.002Z,0
2022-10-06T12:23:10.573Z,0
2022-10-06T12:28:12.220Z,0
2022-10-06T12:33:13.828Z,0
2022-10-06T12:38:15.389Z,0
2022-10-06T12:43:17.014Z,0
2022-10-06T12:48:18.877Z,0
2022-10-06T12:53:20.611Z,0
2022-10-06T12:58:22.227Z,0
2022-10-06T13:03:24.169Z,0
2022-10-06T13:08:25.817Z,0
2022-10-06T13:13:27.417Z,0
2022-10-06T13:18:29.032Z,0
2022-10-06T13:23:30.685Z,0
2022-10-06T13:28:32.387Z,0
2022-10-06T13:33:34.049Z,0
2022-10-06T13:38:35.661Z,0
2022-10-06T13:43:39.625Z,1.54065
2022-10-06T13:48:41.516Z,4.74055
2022-10-06T13:53:43.129Z,5.6294
2022-10-06T13:58:44.731Z,6.57755
2022-10-06T14:03:46.431Z,9.1256
2022-10-06T14:08:48.048Z,14.04395
2022-10-06T14:13:49.630Z,19.02155
2022-10-06T14:18:51.288Z,22.34
2022-10-06T14:23:52.956Z,26.3695
2022-10-06T14:28:54.556Z,28.14725
2022-10-06T14:33:56.142Z,37.974
2022-10-06T14:38:57.714Z,47.3981
2022-10-06T14:43:59.294Z,53.1522
2022-10-06T14:49:00.892Z,60.43705
2022-10-06T14:54:02.490Z,71.96425
2022-10-06T14:59:04.127Z,132.2618
2022-10-06T15:04:05.748Z,719.8594
2022-10-06T15:09:07.360Z,141.3877
2022-10-06T15:14:09.104Z,133.15095
2022-10-06T15:19:10.782Z,166.7496
2022-10-06T15:24:12.358Z,142.8693
2022-10-06T15:29:13.973Z,180.0827
2022-10-06T15:34:15.569Z,202.0077
2022-10-06T15:39:17.136Z,211.3112
2022-10-06T15:44:18.699Z,236.1992
2022-10-06T15:49:20.326Z,231.5179
2022-10-06T15:54:21.967Z,214.21495
2022-10-06T15:59:23.543Z,221.97765
2022-10-06T16:04:25.107Z,227.1331
2022-10-06T16:09:26.703Z,251.96185
2022-10-06T16:14:28.297Z,262.6281
2022-10-06T16:19:29.942Z,264.5836
2022-10-06T16:24:31.522Z,340.2553
2022-10-06T16:29:33.129Z,437.49625
2022-10-06T16:34:34.752Z,446.26625
2022-10-06T16:39:36.328Z,368.10595
2022-10-06T16:44:37.931Z,436.36995
2022-10-06T16:49:39.502Z,371.3057
2022-10-06T16:54:41.106Z,425.7629
2022-10-06T16:59:46.599Z,440.10315
2022-10-06T17:04:48.630Z,456.2211
2022-10-06T17:10:15.292Z,439.6289
2022-10-06T17:15:21.152Z,448.16185
2022-10-06T17:20:22.763Z,461.13915
2022-10-06T17:25:24.442Z,461.67235
2022-10-06T17:30:26.071Z,461.79075
2022-10-06T17:35:27.676Z,431.5698
2022-10-06T17:40:29.270Z,455.33165
2022-10-06T17:45:30.908Z,383.3943
2022-10-06T17:50:32.562Z,384.9944
2022-10-06T17:55:34.148Z,349.61805
2022-10-06T18:00:35.763Z,494.62005
2022-10-06T18:05:37.370Z,454.20665
2022-10-06T18:10:38.943Z,537.6998
2022-10-06T18:15:40.526Z,532.7221
2022-10-06T18:20:42.108Z,515.12265
2022-10-06T18:25:43.702Z,501.4935
2022-10-06T18:30:45.276Z,517.9671
2022-10-06T18:36:14.369Z,523.12245
2022-10-06T18:41:16.784Z,507.35995
2022-10-06T18:46:18.520Z,506.2933
2022-10-06T18:51:20.156Z,507.89325
2022-10-06T18:56:21.812Z,494.56035
2022-10-06T19:01:23.517Z,508.60445
2022-10-06T19:06:25.177Z,373.3801
2022-10-06T19:11:26.798Z,509.31535
2022-10-06T19:16:28.470Z,495.27135
2022-10-06T19:21:30.123Z,465.8798
2022-10-06T19:26:31.769Z,444.3102
2022-10-06T19:31:33.358Z,484.96035
2022-10-06T19:36:34.980Z,487.5677
2022-10-06T19:41:36.607Z,500.24875
2022-10-06T19:46:38.233Z,521.1667
2022-10-06T19:51:39.838Z,527.44825
2022-10-06T19:56:41.424Z,542.1443
2022-10-06T20:01:43.050Z,561.1067
2022-10-06T20:06:44.676Z,576.6322
2022-10-06T20:11:46.308Z,556.7812
2022-10-06T20:16:47.964Z,566.3215
2022-10-06T20:21:49.593Z,566.2623
2022-10-06T20:26:51.259Z,577.10635
2022-10-06T20:31:52.908Z,519.74525
2022-10-06T20:36:56.205Z,452.7254
2022-10-06T20:41:57.927Z,420.72635
2022-10-06T20:46:59.491Z,470.26505
2022-10-06T20:52:01.077Z,448.93255
2022-10-06T20:57:02.781Z,496.8717
2022-10-06T21:02:04.347Z,483.598
2022-10-06T21:07:06.179Z,485.731
2022-10-06T21:12:07.791Z,489.2271
2022-10-06T21:17:09.412Z,492.42695
2022-10-06T21:22:10.984Z,470.20575
2022-10-06T21:27:12.591Z,474.1761
2022-10-06T21:32:14.194Z,472.81345
2022-10-06T21:37:15.798Z,469.96915
2022-10-06T21:42:17.407Z,478.85765
2022-10-06T21:47:19.091Z,498.531
2022-10-06T21:52:20.710Z,482.3539
2022-10-06T21:57:22.296Z,456.2214
2022-10-06T22:02:23.986Z,463.6878
2022-10-06T22:07:25.690Z,511.21205
2022-10-06T22:12:27.275Z,494.1461
2022-10-06T22:17:28.872Z,577.40215
2022-10-06T22:22:30.515Z,454.8585
2022-10-06T22:27:32.076Z,393.8236
2022-10-06T22:32:33.683Z,411.83765
2022-10-06T22:37:35.294Z,458.1174
2022-10-06T22:42:36.891Z,436.4292
2022-10-06T22:47:38.446Z,373.02415
2022-10-06T22:52:40.198Z,395.364
2022-10-06T22:57:42.176Z,428.31085
2022-10-06T23:02:44.031Z,424.75535
2022-10-06T23:07:46.057Z,384.99385
2022-10-06T23:12:47.984Z,374.92
2022-10-06T23:17:49.553Z,273.53125
2022-10-06T23:22:51.197Z,332.01775
2022-10-06T23:27:52.785Z,273.11615
2022-10-06T23:32:54.368Z,233.59175
2022-10-06T23:37:56.038Z,153.59485
2022-10-06T23:42:57.748Z,135.22515
2022-10-06T23:47:59.353Z,128.94395
2022-10-06T23:53:00.925Z,120.82575
2022-10-06T23:58:02.559Z,108.73725
